createdAt,value
2022-12-23T00:00:07.168Z,86.81
2022-12-23T00:01:07.102Z,86.91
2022-12-23T00:02:07.144Z,87.02
2022-12-23T00:03:07.187Z,87.02
2022-12-23T00:04:07.117Z,87.02
2022-12-23T00:05:07.042Z,87.12
2022-12-23T00:06:07.085Z,87.22
2022-12-23T00:07:07.048Z,87.32
2022-12-23T00:08:07.018Z,87.32
2022-12-23T00:09:07.013Z,87.43
2022-12-23T00:10:07.001Z,87.43
2022-12-23T00:11:07.009Z,87.53
2022-12-23T00:12:07.002Z,87.73
2022-12-23T00:13:06.962Z,87.84
2022-12-23T00:14:06.955Z,87.94
2022-12-23T00:15:06.940Z,88.04
2022-12-23T00:16:06.976Z,88.14
2022-12-23T00:17:21.630Z,88.24
2022-12-23T00:18:07.916Z,88.35
2022-12-23T00:19:06.901Z,88.45
2022-12-23T00:20:06.868Z,88.45
2022-12-23T00:21:09.104Z,88.56
2022-12-23T00:22:06.879Z,88.56
2022-12-23T00:23:06.846Z,88.56
2022-12-23T00:24:06.876Z,88.35
2022-12-23T00:25:06.807Z,88.10
2022-12-23T00:26:06.817Z,88.21
2022-12-23T00:27:06.812Z,88.10
2022-12-23T00:28:06.784Z,88.21
2022-12-23T00:29:06.820Z,88.31
2022-12-23T00:30:06.812Z,88.21
2022-12-23T00:31:06.765Z,88.21
2022-12-23T00:32:06.837Z,88.31
2022-12-23T00:33:06.732Z,88.31
2022-12-23T00:34:06.742Z,88.41
2022-12-23T00:35:06.713Z,88.51
2022-12-23T00:36:06.781Z,88.51
2022-12-23T00:37:06.747Z,88.62
2022-12-23T00:38:06.673Z,88.72
2022-12-23T00:39:06.686Z,88.82
2022-12-23T00:40:07.105Z,88.86
2022-12-23T00:41:06.802Z,88.86
2022-12-23T00:42:06.689Z,88.96
2022-12-23T00:43:06.622Z,89.27
2022-12-23T00:44:06.665Z,89.52
2022-12-23T00:45:06.601Z,89.83
2022-12-23T00:46:06.638Z,89.93
2022-12-23T00:47:06.576Z,90.03
2022-12-23T00:48:06.577Z,90.24
2022-12-23T00:49:06.556Z,90.14
2022-12-23T00:50:06.584Z,90.18
2022-12-23T00:51:06.530Z,90.38
2022-12-23T00:52:06.534Z,90.48
2022-12-23T00:53:06.526Z,90.59
2022-12-23T00:54:06.506Z,90.69
2022-12-23T00:55:06.508Z,90.80
2022-12-23T00:56:06.454Z,90.89
2022-12-23T00:57:06.476Z,91.04
2022-12-23T00:58:06.447Z,91.25
2022-12-23T00:59:06.415Z,91.35
2022-12-23T01:00:06.436Z,91.55
2022-12-23T01:01:06.623Z,91.55
2022-12-23T01:02:06.534Z,91.66
2022-12-23T01:03:06.540Z,91.66
2022-12-23T01:04:06.385Z,91.66
2022-12-23T01:05:06.356Z,91.76
2022-12-23T01:06:06.356Z,91.80
2022-12-23T01:07:06.402Z,91.91
2022-12-23T01:08:06.365Z,92.01
2022-12-23T01:09:06.322Z,92.11
2022-12-23T01:10:06.309Z,92.21
2022-12-23T01:11:06.313Z,92.32
2022-12-23T01:12:06.306Z,92.32
2022-12-23T01:13:06.288Z,92.42
2022-12-23T01:14:06.281Z,92.52
2022-12-23T01:15:06.239Z,92.83
2022-12-23T01:16:08.299Z,93.08
2022-12-23T01:17:06.315Z,93.18
2022-12-23T01:18:06.264Z,93.39
2022-12-23T01:19:06.213Z,93.59
2022-12-23T01:20:06.221Z,93.70
2022-12-23T01:21:06.180Z,93.70
2022-12-23T01:22:06.244Z,93.70
2022-12-23T01:23:06.174Z,93.59
2022-12-23T01:24:06.159Z,93.59
2022-12-23T01:25:06.160Z,93.59
2022-12-23T01:26:06.111Z,93.59
2022-12-23T01:27:06.116Z,93.70
2022-12-23T01:28:06.153Z,93.80
2022-12-23T01:29:06.106Z,93.55
2022-12-23T01:30:06.110Z,93.49
2022-12-23T01:31:06.092Z,93.39
2022-12-23T01:32:06.121Z,93.39
2022-12-23T01:33:06.075Z,93.29
2022-12-23T01:34:06.070Z,93.29
2022-12-23T01:35:06.056Z,93.29
2022-12-23T01:36:06.036Z,93.29
2022-12-23T01:37:06.075Z,93.29
2022-12-23T01:38:05.990Z,93.39
2022-12-23T01:39:06.023Z,93.39
2022-12-23T01:40:05.979Z,93.29
2022-12-23T01:41:06.008Z,93.29
2022-12-23T01:42:05.969Z,93.39
2022-12-23T01:43:05.959Z,93.39
2022-12-23T01:44:05.962Z,93.39
2022-12-23T01:45:05.924Z,93.49
2022-12-23T01:46:05.967Z,93.49
2022-12-23T01:47:05.877Z,93.49
2022-12-23T01:48:05.896Z,93.54
2022-12-23T01:49:05.931Z,93.54
2022-12-23T01:50:05.854Z,93.74
2022-12-23T01:51:05.835Z,93.74
2022-12-23T01:52:05.831Z,93.84
2022-12-23T01:53:08.143Z,94.15
2022-12-23T01:54:05.816Z,94.05
2022-12-23T01:55:05.832Z,93.95
2022-12-23T01:56:05.795Z,93.95
2022-12-23T01:57:05.791Z,93.95
2022-12-23T01:58:05.764Z,93.84
2022-12-23T01:59:05.880Z,93.74
2022-12-23T02:00:05.768Z,93.64
2022-12-23T02:01:05.833Z,93.68
2022-12-23T02:02:05.939Z,93.58
2022-12-23T02:03:05.865Z,93.68
2022-12-23T02:04:05.715Z,93.99
2022-12-23T02:05:05.724Z,94.51
2022-12-23T02:06:05.674Z,94.71
2022-12-23T02:07:05.671Z,94.81
2022-12-23T02:08:05.661Z,94.71
2022-12-23T02:09:05.643Z,94.81
2022-12-23T02:10:05.631Z,94.81
2022-12-23T02:11:05.650Z,94.81
2022-12-23T02:12:05.646Z,94.92
2022-12-23T02:13:05.615Z,94.81
2022-12-23T02:14:05.563Z,94.81
2022-12-23T02:15:05.554Z,94.71
2022-12-23T02:16:05.558Z,94.71
2022-12-23T02:17:05.636Z,94.71
2022-12-23T02:18:05.560Z,94.81
2022-12-23T02:19:05.517Z,94.92
2022-12-23T02:20:05.506Z,95.02
2022-12-23T02:21:05.524Z,95.12
2022-12-23T02:22:05.504Z,95.12
2022-12-23T02:23:05.534Z,95.02
2022-12-23T02:24:05.509Z,95.02
2022-12-23T02:25:05.443Z,94.96
2022-12-23T02:26:05.439Z,95.06
2022-12-23T02:27:05.425Z,95.06
2022-12-23T02:28:05.406Z,95.17
2022-12-23T02:29:05.428Z,95.17
2022-12-23T02:30:05.407Z,95.06
2022-12-23T02:31:05.484Z,95.06
2022-12-23T02:32:05.366Z,95.06
2022-12-23T02:33:05.498Z,95.17
2022-12-23T02:34:05.337Z,95.17
2022-12-23T02:35:05.389Z,95.27
2022-12-23T02:36:05.312Z,95.27
2022-12-23T02:37:05.311Z,95.27
2022-12-23T02:38:05.299Z,95.17
2022-12-23T02:39:05.321Z,95.27
2022-12-23T02:40:05.335Z,95.17
2022-12-23T02:41:05.292Z,95.17
2022-12-23T02:42:05.285Z,95.48
2022-12-23T02:43:05.263Z,95.58
2022-12-23T02:44:05.278Z,95.73
2022-12-23T02:45:05.229Z,95.89
2022-12-23T02:46:05.276Z,95.99
2022-12-23T02:47:05.195Z,96.09
2022-12-23T02:48:05.192Z,96.20
2022-12-23T02:49:05.219Z,96.30
2022-12-23T02:50:05.339Z,96.30
2022-12-23T02:51:05.159Z,96.41
2022-12-23T02:52:05.166Z,96.30
2022-12-23T02:53:05.119Z,96.30
2022-12-23T02:54:05.122Z,96.30
2022-12-23T02:55:05.123Z,96.09
2022-12-23T02:56:05.136Z,96.05
2022-12-23T02:57:05.134Z,96.05
2022-12-23T02:58:05.110Z,95.95
2022-12-23T02:59:05.071Z,95.95
2022-12-23T03:00:05.154Z,95.95
2022-12-23T03:01:05.113Z,95.84
2022-12-23T03:02:05.203Z,95.84
2022-12-23T03:03:05.143Z,95.84
2022-12-23T03:04:06.768Z,95.74
2022-12-23T03:05:05.034Z,95.74
2022-12-23T03:06:04.979Z,95.74
2022-12-23T03:07:08.007Z,95.74
2022-12-23T03:08:04.939Z,95.64
2022-12-23T03:09:04.933Z,95.53
2022-12-23T03:10:05.032Z,95.43
2022-12-23T03:11:04.977Z,95.33
2022-12-23T03:12:04.907Z,95.43
2022-12-23T03:13:04.916Z,95.43
2022-12-23T03:14:04.865Z,95.23
2022-12-23T03:15:04.878Z,95.12
2022-12-23T03:16:04.900Z,95.08
2022-12-23T03:17:04.865Z,94.98
2022-12-23T03:18:04.875Z,94.77
2022-12-23T03:19:04.891Z,94.67
2022-12-23T03:20:04.830Z,94.67
2022-12-23T03:21:04.818Z,94.56
2022-12-23T03:22:04.786Z,94.56
2022-12-23T03:23:04.777Z,94.56
2022-12-23T03:24:04.765Z,94.67
2022-12-23T03:25:04.797Z,94.67
2022-12-23T03:26:04.797Z,94.56
2022-12-23T03:27:04.775Z,94.46
2022-12-23T03:28:04.731Z,94.46
2022-12-23T03:29:04.721Z,94.36
2022-12-23T03:30:04.746Z,94.30
2022-12-23T03:31:04.700Z,94.30
2022-12-23T03:32:04.705Z,94.60
2022-12-23T03:33:04.705Z,94.81
2022-12-23T03:34:04.648Z,95.02
2022-12-23T03:35:04.629Z,95.12
2022-12-23T03:36:04.633Z,95.12
2022-12-23T03:37:04.633Z,95.02
2022-12-23T03:38:04.642Z,95.12
2022-12-23T03:39:04.606Z,95.12
2022-12-23T03:40:04.663Z,95.12
2022-12-23T03:41:04.571Z,95.12
2022-12-23T03:42:04.584Z,95.12
2022-12-23T03:43:04.560Z,95.12
2022-12-23T03:44:04.585Z,95.12
2022-12-23T03:45:37.106Z,95.12
2022-12-23T03:46:05.598Z,95.12
2022-12-23T03:47:04.549Z,95.12
2022-12-23T03:48:04.482Z,95.02
2022-12-23T03:49:04.486Z,95.12
2022-12-23T03:50:04.529Z,95.23
2022-12-23T03:51:04.465Z,95.33
2022-12-23T03:52:04.477Z,95.33
2022-12-23T03:53:04.468Z,95.23
2022-12-23T03:54:04.457Z,95.33
2022-12-23T03:55:04.480Z,95.33
2022-12-23T03:56:04.397Z,95.33
2022-12-23T03:57:04.390Z,95.33
2022-12-23T03:58:04.412Z,95.33
2022-12-23T03:59:04.366Z,95.23
2022-12-23T04:00:04.355Z,95.23
2022-12-23T04:01:04.379Z,95.02
2022-12-23T04:02:04.518Z,95.02
2022-12-23T04:03:04.384Z,95.02
2022-12-23T04:04:04.363Z,94.92
2022-12-23T04:05:04.330Z,94.81
2022-12-23T04:06:04.287Z,94.92
2022-12-23T04:07:04.342Z,94.92
2022-12-23T04:08:04.367Z,95.02
2022-12-23T04:09:04.268Z,95.12
2022-12-23T04:10:04.263Z,95.23
2022-12-23T04:11:04.230Z,95.23
2022-12-23T04:12:04.250Z,95.33
2022-12-23T04:13:04.259Z,95.33
2022-12-23T04:14:04.223Z,95.12
2022-12-23T04:15:10.681Z,95.02
2022-12-23T04:16:05.228Z,94.92
2022-12-23T04:17:04.179Z,95.02
2022-12-23T04:18:04.183Z,95.23
2022-12-23T04:19:04.130Z,95.23
2022-12-23T04:20:04.152Z,95.23
2022-12-23T04:21:04.143Z,95.23
2022-12-23T04:22:04.143Z,95.17
2022-12-23T04:23:04.165Z,95.17
2022-12-23T04:24:04.072Z,95.27
2022-12-23T04:25:04.092Z,95.37
2022-12-23T04:26:04.084Z,95.58
2022-12-23T04:27:04.083Z,95.68
2022-12-23T04:28:04.043Z,95.68
2022-12-23T04:29:04.056Z,95.74
2022-12-23T04:30:04.041Z,95.74
2022-12-23T04:31:04.078Z,95.74
2022-12-23T04:32:04.019Z,95.64
2022-12-23T04:33:04.007Z,95.53
2022-12-23T04:34:03.967Z,95.43
2022-12-23T04:35:03.967Z,95.33
2022-12-23T04:36:03.979Z,95.23
2022-12-23T04:37:03.931Z,95.12
2022-12-23T04:38:03.978Z,95.02
2022-12-23T04:39:03.926Z,94.92
2022-12-23T04:40:03.904Z,94.81
2022-12-23T04:41:03.929Z,94.71
2022-12-23T04:42:03.932Z,94.81
2022-12-23T04:43:03.909Z,94.81
2022-12-23T04:44:03.945Z,94.71
2022-12-23T04:45:03.874Z,94.76
2022-12-23T04:46:03.897Z,94.65
2022-12-23T04:47:03.897Z,94.65
2022-12-23T04:48:03.811Z,94.76
2022-12-23T04:49:03.787Z,94.76
2022-12-23T04:50:03.789Z,94.85
2022-12-23T04:51:03.820Z,94.96
2022-12-23T04:52:03.794Z,94.96
2022-12-23T04:53:03.753Z,95.06
2022-12-23T04:54:03.751Z,95.17
2022-12-23T04:55:03.739Z,95.27
2022-12-23T04:56:03.781Z,95.27
2022-12-23T04:57:03.786Z,95.27
2022-12-23T04:58:03.722Z,95.37
2022-12-23T04:59:03.693Z,95.27
2022-12-23T05:00:03.701Z,95.27
2022-12-23T05:01:03.756Z,95.37
2022-12-23T05:02:03.903Z,95.37
2022-12-23T05:03:03.869Z,95.27
2022-12-23T05:04:03.615Z,95.37
2022-12-23T05:05:03.625Z,95.37
2022-12-23T05:06:03.637Z,95.37
2022-12-23T05:07:03.604Z,95.37
2022-12-23T05:08:03.610Z,95.37
2022-12-23T05:09:03.594Z,95.37
2022-12-23T05:10:03.553Z,95.27
2022-12-23T05:11:03.547Z,95.17
2022-12-23T05:12:03.594Z,95.17
2022-12-23T05:13:03.557Z,95.06
2022-12-23T05:14:03.525Z,95.02
2022-12-23T05:15:03.492Z,94.96
2022-12-23T05:16:03.588Z,94.96
2022-12-23T05:17:07.351Z,94.85
2022-12-23T05:18:03.529Z,94.85
2022-12-23T05:19:03.465Z,94.96
2022-12-23T05:20:03.476Z,94.96
2022-12-23T05:21:03.460Z,95.06
2022-12-23T05:22:03.447Z,95.12
2022-12-23T05:23:03.462Z,95.12
2022-12-23T05:24:03.475Z,95.12
2022-12-23T05:25:03.404Z,95.02
2022-12-23T05:26:03.394Z,95.02
2022-12-23T05:27:03.370Z,95.02
2022-12-23T05:28:03.373Z,94.92
2022-12-23T05:29:03.358Z,94.71
2022-12-23T05:30:03.360Z,94.60
2022-12-23T05:31:03.527Z,94.40
2022-12-23T05:32:03.403Z,94.30
2022-12-23T05:33:03.323Z,94.20
2022-12-23T05:34:06.620Z,94.15
2022-12-23T05:35:03.258Z,94.05
2022-12-23T05:36:03.317Z,93.74
2022-12-23T05:37:03.281Z,93.54
2022-12-23T05:38:03.276Z,93.33
2022-12-23T05:39:03.232Z,93.12
2022-12-23T05:40:03.222Z,93.12
2022-12-23T05:41:03.232Z,93.12
2022-12-23T05:42:03.192Z,93.12
2022-12-23T05:43:03.246Z,93.23
2022-12-23T05:44:03.163Z,93.43
2022-12-23T05:45:03.296Z,93.54
2022-12-23T05:46:03.174Z,93.54
2022-12-23T05:47:03.133Z,93.74
2022-12-23T05:48:03.173Z,93.74
2022-12-23T05:49:03.141Z,93.64
2022-12-23T05:50:03.152Z,93.64
2022-12-23T05:51:03.120Z,93.64
2022-12-23T05:52:03.105Z,93.54
2022-12-23T05:53:03.101Z,93.54
2022-12-23T05:54:03.114Z,93.33
2022-12-23T05:55:03.101Z,93.23
2022-12-23T05:56:03.021Z,93.12
2022-12-23T05:57:03.023Z,93.02
2022-12-23T05:58:03.058Z,93.02
2022-12-23T05:59:03.005Z,93.12
2022-12-23T06:00:02.982Z,93.43
2022-12-23T06:01:03.017Z,93.64
2022-12-23T06:02:03.074Z,93.64
2022-12-23T06:03:03.168Z,93.54
2022-12-23T06:04:03.083Z,93.54
2022-12-23T06:05:02.988Z,93.54
2022-12-23T06:06:02.913Z,93.54
2022-12-23T06:07:02.939Z,93.39
2022-12-23T06:08:02.900Z,92.97
2022-12-23T06:09:02.878Z,92.32
2022-12-23T06:10:02.886Z,92.01
2022-12-23T06:11:02.890Z,91.60
2022-12-23T06:12:02.882Z,91.19
2022-12-23T06:13:02.870Z,91.08
2022-12-23T06:14:02.834Z,91.08
2022-12-23T06:15:02.807Z,91.08
2022-12-23T06:16:02.843Z,91.08
2022-12-23T06:17:02.838Z,91.19
2022-12-23T06:18:02.801Z,91.29
2022-12-23T06:19:02.803Z,91.39
2022-12-23T06:20:02.787Z,91.53
2022-12-23T06:21:02.765Z,91.64
2022-12-23T06:22:02.726Z,91.64
2022-12-23T06:23:02.723Z,91.64
2022-12-23T06:24:02.752Z,91.74
2022-12-23T06:25:02.754Z,91.70
2022-12-23T06:26:02.713Z,91.49
2022-12-23T06:27:02.670Z,91.29
2022-12-23T06:28:02.669Z,91.08
2022-12-23T06:29:02.658Z,90.98
2022-12-23T06:30:02.651Z,90.98
2022-12-23T06:31:02.622Z,90.98
2022-12-23T06:32:02.669Z,91.23
2022-12-23T06:33:02.617Z,91.53
2022-12-23T06:34:02.580Z,91.95
2022-12-23T06:35:02.609Z,92.16
2022-12-23T06:36:02.577Z,92.36
2022-12-23T06:37:02.573Z,92.71
2022-12-23T06:38:03.870Z,92.82
2022-12-23T06:39:02.539Z,92.92
2022-12-23T06:40:02.559Z,92.97
2022-12-23T06:41:02.550Z,92.87
2022-12-23T06:42:02.515Z,92.87
2022-12-23T06:43:02.493Z,92.77
2022-12-23T06:44:02.487Z,92.87
2022-12-23T06:45:02.478Z,92.87
2022-12-23T06:46:02.541Z,92.97
2022-12-23T06:47:02.477Z,93.08
2022-12-23T06:48:02.455Z,93.08
2022-12-23T06:49:04.977Z,92.97
2022-12-23T06:50:03.408Z,92.97
2022-12-23T06:51:02.416Z,92.97
2022-12-23T06:52:02.459Z,92.87
2022-12-23T06:53:02.378Z,92.77
2022-12-23T06:54:02.401Z,92.77
2022-12-23T06:55:02.396Z,92.77
2022-12-23T06:56:02.341Z,92.77
2022-12-23T06:57:02.332Z,92.77
2022-12-23T06:58:02.336Z,92.87
2022-12-23T06:59:02.296Z,92.97
2022-12-23T07:00:02.361Z,92.97
2022-12-23T07:01:02.331Z,93.08
2022-12-23T07:02:02.359Z,93.08
2022-12-23T07:03:02.401Z,92.97
2022-12-23T07:04:02.316Z,93.08
2022-12-23T07:05:02.296Z,93.18
2022-12-23T07:06:02.242Z,93.29
2022-12-23T07:07:02.238Z,93.29
2022-12-23T07:08:02.220Z,93.29
2022-12-23T07:09:02.223Z,93.39
2022-12-23T07:10:02.213Z,93.49
2022-12-23T07:11:02.179Z,93.49
2022-12-23T07:12:02.195Z,93.49
2022-12-23T07:13:02.154Z,93.39
2022-12-23T07:14:02.145Z,93.39
2022-12-23T07:15:02.154Z,93.29
2022-12-23T07:16:02.151Z,93.18
2022-12-23T07:17:02.167Z,93.04
2022-12-23T07:18:02.115Z,92.73
2022-12-23T07:19:02.166Z,92.32
2022-12-23T07:20:02.073Z,91.76
2022-12-23T07:21:02.081Z,91.25
2022-12-23T07:22:02.097Z,90.69
2022-12-23T07:23:02.056Z,90.08
2022-12-23T07:24:02.027Z,89.42
2022-12-23T07:25:02.093Z,88.90
2022-12-23T07:26:02.115Z,88.24
2022-12-23T07:27:02.003Z,88.04
2022-12-23T07:28:01.980Z,87.73
2022-12-23T07:29:01.993Z,87.59
2022-12-23T07:30:01.973Z,87.28
2022-12-23T07:31:01.986Z,87.18
2022-12-23T07:32:02.105Z,86.98
2022-12-23T07:33:01.919Z,86.98
2022-12-23T07:34:01.931Z,86.77
2022-12-23T07:35:01.931Z,86.77
2022-12-23T07:36:01.934Z,86.77
2022-12-23T07:37:01.956Z,86.77
2022-12-23T07:38:01.855Z,86.77
2022-12-23T07:39:01.864Z,86.77
2022-12-23T07:40:08.124Z,86.87
2022-12-23T07:41:02.896Z,86.98
2022-12-23T07:42:33.955Z,87.08
2022-12-23T07:43:02.831Z,87.08
2022-12-23T07:44:01.798Z,86.98
2022-12-23T07:45:01.784Z,86.98
2022-12-23T07:46:01.915Z,86.98
2022-12-23T07:47:01.760Z,86.77
2022-12-23T07:48:01.790Z,86.66
2022-12-23T07:49:01.776Z,86.57
2022-12-23T07:50:01.734Z,86.22
2022-12-23T07:51:01.747Z,86.11
2022-12-23T07:52:01.752Z,86.01
2022-12-23T07:53:01.676Z,86.11
2022-12-23T07:54:01.702Z,86.11
2022-12-23T07:55:01.713Z,85.91
2022-12-23T07:56:01.674Z,85.60
2022-12-23T07:57:01.703Z,85.50
2022-12-23T07:58:01.647Z,85.30
2022-12-23T07:59:01.657Z,84.84
2022-12-23T08:00:01.651Z,84.84
2022-12-23T08:01:01.680Z,84.64
2022-12-23T08:02:01.738Z,84.44
2022-12-23T08:03:01.713Z,84.44
2022-12-23T08:04:01.588Z,84.53
2022-12-23T08:05:01.653Z,84.33
2022-12-23T08:06:01.548Z,84.44
2022-12-23T08:07:01.562Z,84.23
2022-12-23T08:08:01.536Z,84.12
2022-12-23T08:09:01.504Z,84.12
2022-12-23T08:10:01.557Z,84.12
2022-12-23T08:11:01.517Z,84.03
2022-12-23T08:12:01.488Z,83.82
2022-12-23T08:13:01.535Z,83.78
2022-12-23T08:14:01.465Z,83.58
2022-12-23T08:15:01.479Z,83.58
2022-12-23T08:16:01.448Z,83.47
2022-12-23T08:17:01.785Z,83.72
2022-12-23T08:18:01.398Z,83.92
2022-12-23T08:19:01.508Z,83.92
2022-12-23T08:20:01.433Z,83.82
2022-12-23T08:21:01.369Z,83.92
2022-12-23T08:22:01.345Z,83.92
2022-12-23T08:23:01.348Z,83.92
2022-12-23T08:24:01.357Z,83.92
2022-12-23T08:25:01.345Z,83.72
2022-12-23T08:26:01.324Z,83.72
2022-12-23T08:27:01.308Z,83.61
2022-12-23T08:28:01.337Z,83.51
2022-12-23T08:29:01.290Z,83.41
2022-12-23T08:30:01.332Z,83.41
2022-12-23T08:31:01.311Z,83.41
2022-12-23T08:32:01.269Z,83.37
2022-12-23T08:33:01.247Z,83.27
2022-12-23T08:34:01.238Z,83.27
2022-12-23T08:35:01.249Z,83.20
2022-12-23T08:36:01.214Z,82.96
2022-12-23T08:37:01.247Z,82.96
2022-12-23T08:38:01.184Z,82.96
2022-12-23T08:39:01.197Z,82.55
2022-12-23T08:40:01.209Z,82.24
2022-12-23T08:41:01.153Z,82.21
2022-12-23T08:42:01.147Z,81.90
2022-12-23T08:43:01.122Z,81.79
2022-12-23T08:44:01.140Z,81.70
2022-12-23T08:45:01.108Z,81.79
2022-12-23T08:46:01.142Z,81.70
2022-12-23T08:47:01.097Z,81.29
2022-12-23T08:48:01.075Z,81.45
2022-12-23T08:49:01.057Z,81.56
2022-12-23T08:50:01.052Z,81.65
2022-12-23T08:51:01.067Z,81.35
2022-12-23T08:52:01.027Z,81.76
2022-12-23T08:53:01.023Z,81.45
2022-12-23T08:54:01.652Z,81.24
2022-12-23T08:55:00.995Z,81.04
2022-12-23T08:56:01.000Z,81.04
2022-12-23T08:57:01.030Z,80.94
2022-12-23T08:58:00.943Z,80.83
2022-12-23T08:59:00.949Z,80.83
2022-12-23T09:00:00.943Z,81.04
2022-12-23T09:01:00.991Z,81.15
2022-12-23T09:02:01.069Z,81.15
2022-12-23T09:03:01.025Z,81.15
2022-12-23T09:04:00.968Z,81.35
2022-12-23T09:05:00.902Z,81.35
2022-12-23T09:06:00.865Z,81.56
2022-12-23T09:07:00.847Z,81.15
2022-12-23T09:08:00.860Z,81.15
2022-12-23T09:09:00.831Z,81.24
2022-12-23T09:10:00.861Z,81.35
2022-12-23T09:11:00.839Z,81.15
2022-12-23T09:12:00.794Z,81.15
2022-12-23T09:13:00.805Z,81.35
2022-12-23T09:14:00.796Z,81.04
2022-12-23T09:15:00.775Z,81.24
2022-12-23T09:16:00.814Z,81.35
2022-12-23T09:17:00.760Z,81.24
2022-12-23T09:18:00.729Z,81.04
2022-12-23T09:19:00.744Z,81.04
2022-12-23T09:20:00.758Z,81.04
2022-12-23T09:21:00.696Z,81.24
2022-12-23T09:22:00.719Z,80.74
2022-12-23T09:23:00.692Z,80.83
2022-12-23T09:24:00.665Z,80.83
2022-12-23T09:25:04.973Z,80.33
2022-12-23T09:26:00.648Z,80.22
2022-12-23T09:27:00.645Z,79.98
2022-12-23T09:28:00.636Z,80.08
2022-12-23T09:29:00.635Z,79.98
2022-12-23T09:30:00.605Z,79.98
2022-12-23T09:31:00.602Z,79.78
2022-12-23T09:32:00.626Z,79.37
2022-12-23T09:33:00.590Z,79.68
2022-12-23T09:34:00.574Z,80.19
2022-12-23T09:35:00.550Z,80.08
2022-12-23T09:36:00.525Z,79.27
2022-12-23T09:37:00.538Z,79.16
2022-12-23T09:38:00.541Z,78.86
2022-12-23T09:39:00.492Z,78.52
2022-12-23T09:40:00.511Z,78.72
2022-12-23T09:41:00.456Z,78.61
2022-12-23T09:42:00.477Z,78.41
2022-12-23T09:43:00.453Z,78.20
2022-12-23T09:44:00.436Z,78.17
2022-12-23T09:45:00.476Z,78.07
2022-12-23T09:46:00.461Z,78.17
2022-12-23T09:47:00.461Z,78.27
2022-12-23T09:48:00.434Z,77.97
2022-12-23T09:49:00.419Z,77.66
2022-12-23T09:50:00.408Z,77.76
2022-12-23T09:51:00.364Z,77.56
2022-12-23T09:52:00.351Z,77.56
2022-12-23T09:53:00.333Z,77.35
2022-12-23T09:54:00.362Z,77.35
2022-12-23T09:55:00.304Z,77.04
2022-12-23T09:56:00.327Z,77.25
2022-12-23T09:57:00.287Z,76.84
2022-12-23T09:58:00.322Z,76.94
2022-12-23T09:59:00.251Z,76.84
2022-12-23T10:00:00.352Z,77.15
2022-12-23T10:01:00.223Z,77.15
2022-12-23T10:02:00.460Z,76.74
2022-12-23T10:03:00.473Z,76.84
2022-12-23T10:04:00.315Z,76.84
2022-12-23T10:05:00.219Z,76.81
2022-12-23T10:06:00.190Z,76.70
2022-12-23T10:07:02.992Z,76.50
2022-12-23T10:08:00.188Z,76.50
2022-12-23T10:09:00.148Z,76.29
2022-12-23T10:10:00.152Z,76.40
2022-12-23T10:11:00.124Z,76.09
2022-12-23T10:12:00.146Z,75.89
2022-12-23T10:13:00.139Z,75.78
2022-12-23T10:14:00.100Z,75.99
2022-12-23T10:15:00.073Z,75.89
2022-12-23T10:16:00.140Z,76.09
2022-12-23T10:17:00.149Z,75.99
2022-12-23T10:18:00.038Z,75.89
2022-12-23T10:19:00.055Z,75.68
2022-12-23T10:20:00.018Z,75.75
2022-12-23T10:21:00.056Z,75.65
2022-12-23T10:22:00.030Z,75.68
2022-12-23T10:23:00.021Z,76.19
2022-12-23T10:23:59.996Z,75.99
2022-12-23T10:24:59.962Z,76.19
2022-12-23T10:25:59.973Z,75.89
2022-12-23T10:26:59.930Z,75.68
2022-12-23T10:27:59.947Z,75.99
2022-12-23T10:28:59.951Z,76.09
2022-12-23T10:30:01.195Z,76.19
2022-12-23T10:32:00.956Z,76.50
2022-12-23T10:32:59.904Z,76.81
2022-12-23T10:33:59.868Z,77.04
2022-12-23T10:34:59.864Z,76.94
2022-12-23T10:35:59.900Z,77.25
2022-12-23T10:36:59.956Z,77.45
2022-12-23T10:37:59.815Z,77.15
2022-12-23T10:38:59.806Z,77.25
2022-12-23T10:39:59.844Z,76.84
2022-12-23T10:41:05.335Z,77.15
2022-12-23T10:42:00.822Z,77.35
2022-12-23T10:42:59.774Z,77.25
2022-12-23T10:43:59.769Z,77.35
2022-12-23T10:44:59.725Z,77.25
2022-12-23T10:45:59.716Z,77.04
2022-12-23T10:46:59.757Z,77.04
2022-12-23T10:47:59.727Z,76.94
2022-12-23T10:48:59.701Z,77.04
2022-12-23T10:49:59.687Z,77.25
2022-12-23T10:50:59.685Z,77.25
2022-12-23T10:51:59.656Z,77.15
2022-12-23T10:52:59.700Z,76.88
2022-12-23T10:53:59.644Z,76.88
2022-12-23T10:54:59.618Z,76.98
2022-12-23T10:55:59.637Z,76.78
2022-12-23T10:56:59.624Z,76.43
2022-12-23T10:57:59.612Z,76.33
2022-12-23T10:58:59.570Z,76.23
2022-12-23T10:59:59.575Z,76.12
2022-12-23T11:00:59.616Z,75.62
2022-12-23T11:01:59.752Z,75.71
2022-12-23T11:02:59.638Z,75.31
2022-12-23T11:03:59.540Z,75.17
2022-12-23T11:04:59.560Z,75.17
2022-12-23T11:05:59.508Z,74.97
2022-12-23T11:07:26.255Z,74.56
2022-12-23T11:08:00.513Z,74.35
2022-12-23T11:08:59.485Z,74.15
2022-12-23T11:09:59.460Z,74.22
2022-12-23T11:10:59.454Z,74.22
2022-12-23T11:11:59.521Z,73.71
2022-12-23T11:12:59.411Z,73.60
2022-12-23T11:13:59.401Z,73.81
2022-12-23T11:14:59.406Z,73.81
2022-12-23T11:15:59.452Z,74.22
2022-12-23T11:16:59.388Z,74.32
2022-12-23T11:17:59.488Z,74.11
2022-12-23T11:18:59.373Z,73.81
2022-12-23T11:19:59.338Z,73.81
2022-12-23T11:20:59.345Z,73.81
2022-12-23T11:21:59.327Z,74.01
2022-12-23T11:22:59.308Z,73.36
2022-12-23T11:23:59.329Z,73.47
2022-12-23T11:24:59.324Z,73.47
2022-12-23T11:25:59.287Z,73.36
2022-12-23T11:26:59.258Z,73.10
2022-12-23T11:27:59.256Z,73.50
2022-12-23T11:28:59.241Z,73.40
2022-12-23T11:29:59.267Z,73.50
2022-12-23T11:30:59.237Z,73.47
2022-12-23T11:31:59.280Z,73.16
2022-12-23T11:32:59.190Z,73.36
2022-12-23T11:33:59.192Z,73.67
2022-12-23T11:34:59.196Z,73.67
2022-12-23T11:35:59.208Z,73.67
2022-12-23T11:37:03.692Z,73.47
2022-12-23T11:38:00.151Z,73.50
2022-12-23T11:38:59.134Z,73.50
2022-12-23T11:39:59.125Z,73.77
2022-12-23T11:40:59.119Z,73.88
2022-12-23T11:41:59.116Z,73.71
2022-12-23T11:42:59.071Z,73.81
2022-12-23T11:43:59.073Z,73.81
2022-12-23T11:44:59.095Z,73.19
2022-12-23T11:45:59.144Z,73.47
2022-12-23T11:46:59.095Z,73.77
2022-12-23T11:47:59.022Z,73.57
2022-12-23T11:48:59.001Z,73.88
2022-12-23T11:49:59.016Z,73.88
2022-12-23T11:50:59.009Z,73.91
2022-12-23T11:51:58.994Z,73.50
2022-12-23T11:52:58.983Z,74.08
2022-12-23T11:53:58.972Z,74.18
2022-12-23T11:54:58.954Z,73.88
2022-12-23T11:55:58.956Z,73.77
2022-12-23T11:56:58.993Z,73.67
2022-12-23T11:57:58.954Z,73.47
2022-12-23T11:58:58.893Z,73.30
2022-12-23T11:59:58.905Z,73.47
2022-12-23T12:00:58.892Z,73.30
2022-12-23T12:01:58.900Z,73.67
2022-12-23T12:02:58.912Z,73.40
2022-12-23T12:03:58.915Z,73.60
2022-12-23T12:04:58.849Z,73.91
2022-12-23T12:05:58.830Z,74.11
2022-12-23T12:06:58.811Z,74.22
2022-12-23T12:07:58.829Z,74.32
2022-12-23T12:08:58.785Z,74.42
2022-12-23T12:09:58.782Z,74.66
2022-12-23T12:10:58.781Z,74.87
2022-12-23T12:11:58.802Z,74.66
2022-12-23T12:12:58.744Z,74.46
2022-12-23T12:13:58.755Z,74.35
2022-12-23T12:14:58.752Z,74.35
2022-12-23T12:15:58.716Z,74.66
2022-12-23T12:16:58.814Z,74.87
2022-12-23T12:17:58.719Z,74.52
2022-12-23T12:18:58.705Z,74.56
2022-12-23T12:19:58.683Z,74.35
2022-12-23T12:20:58.663Z,73.94
2022-12-23T12:21:58.646Z,74.15
2022-12-23T12:22:58.744Z,74.22
2022-12-23T12:24:17.022Z,73.81
2022-12-23T12:24:59.623Z,73.91
2022-12-23T12:25:58.609Z,74.01
2022-12-23T12:26:58.563Z,74.11
2022-12-23T12:27:58.577Z,74.32
2022-12-23T12:28:58.592Z,74.22
2022-12-23T12:30:01.047Z,74.01
2022-12-23T12:30:58.684Z,74.01
2022-12-23T12:31:58.529Z,73.94
2022-12-23T12:32:58.547Z,74.25
2022-12-23T12:33:58.584Z,74.35
2022-12-23T12:34:58.501Z,74.05
2022-12-23T12:36:04.903Z,74.25
2022-12-23T12:36:59.595Z,74.15
2022-12-23T12:37:58.463Z,74.46
2022-12-23T12:38:58.496Z,74.25
2022-12-23T12:39:58.467Z,74.46
2022-12-23T12:40:58.437Z,74.76
2022-12-23T12:42:03.608Z,74.97
2022-12-23T12:42:59.562Z,74.56
2022-12-23T12:43:58.416Z,74.76
2022-12-23T12:44:58.395Z,74.87
2022-12-23T12:45:58.436Z,74.87
2022-12-23T12:46:58.348Z,74.66
2022-12-23T12:48:04.611Z,74.15
2022-12-23T12:48:59.349Z,74.46
2022-12-23T12:49:58.311Z,74.56
2022-12-23T12:50:58.340Z,74.46
2022-12-23T12:51:58.317Z,74.56
2022-12-23T12:52:58.338Z,74.46